sensor_id;sensor_type;location;lat;lon;timestamp;P1;durP1;ratioP1;P2;durP2;ratioP2
18653;SDS011;9456;47.824;16.228;2022-08-03T00:04:10;3.87;;;3.67;;
18653;SDS011;9456;47.824;16.228;2022-08-03T00:21:25;4.97;;;4.63;;
18653;SDS011;9456;47.824;16.228;2022-08-03T00:34:18;4.37;;;4.07;;
18653;SDS011;9456;47.824;16.228;2022-08-03T04:24:16;6.90;;;5.10;;
18653;SDS011;9456;47.824;16.228;2022-08-03T04:26:44;4.87;;;4.47;;
18653;SDS011;9456;47.824;16.228;2022-08-03T04:29:13;5.27;;;4.97;;
18653;SDS011;9456;47.824;16.228;2022-08-03T04:31:41;5.20;;;4.80;;
18653;SDS011;9456;47.824;16.228;2022-08-03T04:34:09;5.07;;;4.70;;
18653;SDS011;9456;47.824;16.228;2022-08-03T04:36:39;4.67;;;4.37;;
18653;SDS011;9456;47.824;16.228;2022-08-03T04:39:12;4.83;;;4.37;;
18653;SDS011;9456;47.824;16.228;2022-08-03T04:41:42;5.00;;;4.07;;
18653;SDS011;9456;47.824;16.228;2022-08-03T04:44:10;4.77;;;4.17;;
18653;SDS011;9456;47.824;16.228;2022-08-03T04:46:39;4.60;;;4.20;;
18653;SDS011;9456;47.824;16.228;2022-08-03T04:49:08;5.03;;;3.83;;
18653;SDS011;9456;47.824;16.228;2022-08-03T04:51:36;4.07;;;3.77;;
18653;SDS011;9456;47.824;16.228;2022-08-03T04:54:04;4.60;;;4.20;;
18653;SDS011;9456;47.824;16.228;2022-08-03T04:56:33;4.43;;;4.13;;
18653;SDS011;9456;47.824;16.228;2022-08-03T04:59:02;4.73;;;3.77;;
18653;SDS011;9456;47.824;16.228;2022-08-03T05:01:30;4.10;;;3.80;;
18653;SDS011;9456;47.824;16.228;2022-08-03T05:03:57;4.63;;;4.30;;
18653;SDS011;9456;47.824;16.228;2022-08-03T05:06:24;4.47;;;4.10;;
18653;SDS011;9456;47.824;16.228;2022-08-03T05:08:52;3.73;;;3.43;;
18653;SDS011;9456;47.824;16.228;2022-08-03T05:11:19;4.10;;;3.67;;
18653;SDS011;9456;47.824;16.228;2022-08-03T05:13:47;5.47;;;3.97;;
18653;SDS011;9456;47.824;16.228;2022-08-03T05:16:16;4.17;;;3.87;;
18653;SDS011;9456;47.824;16.228;2022-08-03T05:18:44;6.30;;;3.90;;
18653;SDS011;9456;47.824;16.228;2022-08-03T05:21:12;5.27;;;4.60;;
18653;SDS011;9456;47.824;16.228;2022-08-03T05:23:40;4.63;;;4.23;;
18653;SDS011;9456;47.824;16.228;2022-08-03T05:26:08;4.30;;;4.03;;
18653;SDS011;9456;47.824;16.228;2022-08-03T05:28:37;5.23;;;4.13;;
18653;SDS011;9456;47.824;16.228;2022-08-03T05:31:04;8.07;;;4.20;;
18653;SDS011;9456;47.824;16.228;2022-08-03T05:33:33;8.30;;;4.30;;
18653;SDS011;9456;47.824;16.228;2022-08-03T05:36:01;5.37;;;4.13;;
18653;SDS011;9456;47.824;16.228;2022-08-03T05:38:29;10.07;;;4.70;;
18653;SDS011;9456;47.824;16.228;2022-08-03T05:40:57;7.50;;;4.40;;
18653;SDS011;9456;47.824;16.228;2022-08-03T05:43:24;7.17;;;4.43;;
18653;SDS011;9456;47.824;16.228;2022-08-03T05:45:52;6.53;;;4.13;;
18653;SDS011;9456;47.824;16.228;2022-08-03T05:48:19;6.77;;;4.30;;
18653;SDS011;9456;47.824;16.228;2022-08-03T05:50:48;4.40;;;4.00;;
18653;SDS011;9456;47.824;16.228;2022-08-03T05:53:15;5.10;;;4.20;;
18653;SDS011;9456;47.824;16.228;2022-08-03T05:55:43;4.15;;;3.83;;
18653;SDS011;9456;47.824;16.228;2022-08-03T05:58:11;4.50;;;3.80;;
18653;SDS011;9456;47.824;16.228;2022-08-03T06:00:38;6.15;;;3.97;;
18653;SDS011;9456;47.824;16.228;2022-08-03T06:03:06;9.85;;;4.50;;
18653;SDS011;9456;47.824;16.228;2022-08-03T06:05:34;4.53;;;4.15;;
18653;SDS011;9456;47.824;16.228;2022-08-03T06:08:05;6.95;;;4.45;;
18653;SDS011;9456;47.824;16.228;2022-08-03T06:10:33;4.80;;;4.05;;
18653;SDS011;9456;47.824;16.228;2022-08-03T06:13:00;7.25;;;4.75;;
18653;SDS011;9456;47.824;16.228;2022-08-03T06:15:28;4.95;;;4.43;;
18653;SDS011;9456;47.824;16.228;2022-08-03T06:17:57;10.07;;;4.97;;
18653;SDS011;9456;47.824;16.228;2022-08-03T06:20:25;8.23;;;4.07;;
18653;SDS011;9456;47.824;16.228;2022-08-03T06:22:52;5.93;;;4.13;;
18653;SDS011;9456;47.824;16.228;2022-08-03T06:25:21;9.25;;;4.68;;
18653;SDS011;9456;47.824;16.228;2022-08-03T06:27:50;5.60;;;4.43;;
18653;SDS011;9456;47.824;16.228;2022-08-03T06:30:17;11.55;;;4.47;;
18653;SDS011;9456;47.824;16.228;2022-08-03T06:32:45;12.18;;;4.72;;
18653;SDS011;9456;47.824;16.228;2022-08-03T06:35:12;5.50;;;4.18;;
18653;SDS011;9456;47.824;16.228;2022-08-03T06:37:40;6.70;;;4.47;;
18653;SDS011;9456;47.824;16.228;2022-08-03T06:40:10;6.28;;;4.25;;
18653;SDS011;9456;47.824;16.228;2022-08-03T06:42:39;4.90;;;4.50;;
18653;SDS011;9456;47.824;16.228;2022-08-03T06:45:07;5.38;;;4.05;;
18653;SDS011;9456;47.824;16.228;2022-08-03T06:47:35;4.93;;;3.92;;
18653;SDS011;9456;47.824;16.228;2022-08-03T06:50:02;11.80;;;4.30;;
18653;SDS011;9456;47.824;16.228;2022-08-03T06:52:30;5.82;;;4.57;;
18653;SDS011;9456;47.824;16.228;2022-08-03T06:54:57;4.90;;;4.60;;
18653;SDS011;9456;47.824;16.228;2022-08-03T06:57:25;7.35;;;4.40;;
18653;SDS011;9456;47.824;16.228;2022-08-03T06:59:54;5.82;;;3.92;;
18653;SDS011;9456;47.824;16.228;2022-08-03T07:02:25;5.65;;;3.78;;
18653;SDS011;9456;47.824;16.228;2022-08-03T07:04:53;5.85;;;4.10;;
18653;SDS011;9456;47.824;16.228;2022-08-03T07:07:20;5.13;;;4.47;;
18653;SDS011;9456;47.824;16.228;2022-08-03T07:09:48;6.55;;;4.40;;
18653;SDS011;9456;47.824;16.228;2022-08-03T07:12:15;5.32;;;3.85;;
18653;SDS011;9456;47.824;16.228;2022-08-03T07:14:43;5.05;;;3.85;;
18653;SDS011;9456;47.824;16.228;2022-08-03T07:17:12;3.60;;;2.88;;
18653;SDS011;9456;47.824;16.228;2022-08-03T07:19:40;3.33;;;3.10;;
18653;SDS011;9456;47.824;16.228;2022-08-03T07:22:07;3.70;;;3.40;;
18653;SDS011;9456;47.824;16.228;2022-08-03T07:24:35;4.57;;;3.53;;
18653;SDS011;9456;47.824;16.228;2022-08-03T07:27:03;2.75;;;2.40;;
18653;SDS011;9456;47.824;16.228;2022-08-03T07:29:30;3.72;;;2.40;;
18653;SDS011;9456;47.824;16.228;2022-08-03T07:31:58;2.60;;;2.40;;
18653;SDS011;9456;47.824;16.228;2022-08-03T07:34:27;2.33;;;2.13;;
18653;SDS011;9456;47.824;16.228;2022-08-03T07:36:55;2.17;;;2.08;;
18653;SDS011;9456;47.824;16.228;2022-08-03T07:39:23;1.95;;;1.85;;
18653;SDS011;9456;47.824;16.228;2022-08-03T07:41:50;2.00;;;1.90;;
18653;SDS011;9456;47.824;16.228;2022-08-03T07:44:18;2.67;;;1.80;;
18653;SDS011;9456;47.824;16.228;2022-08-03T07:46:46;2.28;;;2.10;;
18653;SDS011;9456;47.824;16.228;2022-08-03T07:49:14;3.05;;;2.85;;
18653;SDS011;9456;47.824;16.228;2022-08-03T07:51:44;2.40;;;2.30;;
18653;SDS011;9456;47.824;16.228;2022-08-03T07:54:31;2.13;;;2.03;;
18653;SDS011;9456;47.824;16.228;2022-08-03T07:56:59;1.98;;;1.88;;
18653;SDS011;9456;47.824;16.228;2022-08-03T07:59:26;1.90;;;1.90;;
18653;SDS011;9456;47.824;16.228;2022-08-03T08:01:54;2.00;;;1.90;;
18653;SDS011;9456;47.824;16.228;2022-08-03T08:04:21;2.05;;;1.95;;
18653;SDS011;9456;47.824;16.228;2022-08-03T08:06:50;1.67;;;1.60;;
18653;SDS011;9456;47.824;16.228;2022-08-03T08:09:18;2.05;;;1.80;;
18653;SDS011;9456;47.824;16.228;2022-08-03T08:11:45;2.13;;;2.03;;
18653;SDS011;9456;47.824;16.228;2022-08-03T08:14:15;1.92;;;1.80;;
18653;SDS011;9456;47.824;16.228;2022-08-03T08:16:42;1.60;;;1.50;;
18653;SDS011;9456;47.824;16.228;2022-08-03T08:19:11;1.90;;;1.80;;
18653;SDS011;9456;47.824;16.228;2022-08-03T08:21:40;1.70;;;1.70;;
18653;SDS011;9456;47.824;16.228;2022-08-03T08:24:09;1.85;;;1.75;;
18653;SDS011;9456;47.824;16.228;2022-08-03T08:26:37;2.20;;;2.10;;
18653;SDS011;9456;47.824;16.228;2022-08-03T08:29:04;1.83;;;1.73;;
18653;SDS011;9456;47.824;16.228;2022-08-03T08:31:32;1.83;;;1.73;;
18653;SDS011;9456;47.824;16.228;2022-08-03T08:33:59;2.15;;;2.05;;
18653;SDS011;9456;47.824;16.228;2022-08-03T08:36:30;2.00;;;1.90;;
18653;SDS011;9456;47.824;16.228;2022-08-03T08:38:58;1.48;;;1.48;;
18653;SDS011;9456;47.824;16.228;2022-08-03T08:41:27;1.73;;;1.67;;
18653;SDS011;9456;47.824;16.228;2022-08-03T08:43:58;2.35;;;1.98;;
18653;SDS011;9456;47.824;16.228;2022-08-03T08:46:25;2.30;;;2.20;;
18653;SDS011;9456;47.824;16.228;2022-08-03T08:48:53;2.30;;;2.10;;
18653;SDS011;9456;47.824;16.228;2022-08-03T08:51:21;2.83;;;1.70;;
18653;SDS011;9456;47.824;16.228;2022-08-03T08:53:53;1.80;;;1.70;;
18653;SDS011;9456;47.824;16.228;2022-08-03T08:56:24;2.00;;;1.90;;
18653;SDS011;9456;47.824;16.228;2022-08-03T08:58:55;5.55;;;1.90;;
18653;SDS011;9456;47.824;16.228;2022-08-03T09:01:23;1.80;;;1.70;;
18653;SDS011;9456;47.824;16.228;2022-08-03T09:03:51;1.92;;;1.65;;
18653;SDS011;9456;47.824;16.228;2022-08-03T09:06:19;1.75;;;1.65;;
18653;SDS011;9456;47.824;16.228;2022-08-03T09:08:46;2.03;;;1.60;;
18653;SDS011;9456;47.824;16.228;2022-08-03T09:11:14;2.10;;;1.90;;
18653;SDS011;9456;47.824;16.228;2022-08-03T09:13:41;1.80;;;1.70;;
18653;SDS011;9456;47.824;16.228;2022-08-03T09:16:12;1.73;;;1.63;;
18653;SDS011;9456;47.824;16.228;2022-08-03T09:18:40;2.00;;;1.60;;
18653;SDS011;9456;47.824;16.228;2022-08-03T09:21:14;1.85;;;1.75;;
18653;SDS011;9456;47.824;16.228;2022-08-03T09:23:45;2.35;;;1.90;;
18653;SDS011;9456;47.824;16.228;2022-08-03T09:26:18;2.17;;;1.92;;
18653;SDS011;9456;47.824;16.228;2022-08-03T09:28:46;1.60;;;1.60;;
18653;SDS011;9456;47.824;16.228;2022-08-03T09:31:16;1.75;;;1.50;;
18653;SDS011;9456;47.824;16.228;2022-08-03T09:33:46;1.65;;;1.60;;
18653;SDS011;9456;47.824;16.228;2022-08-03T09:36:33;1.45;;;1.45;;
18653;SDS011;9456;47.824;16.228;2022-08-03T09:39:02;1.92;;;1.77;;
18653;SDS011;9456;47.824;16.228;2022-08-03T09:41:30;1.45;;;1.35;;
18653;SDS011;9456;47.824;16.228;2022-08-03T09:43:58;1.80;;;1.70;;
18653;SDS011;9456;47.824;16.228;2022-08-03T09:46:28;1.80;;;1.70;;
18653;SDS011;9456;47.824;16.228;2022-08-03T09:49:09;2.10;;;1.90;;
18653;SDS011;9456;47.824;16.228;2022-08-03T09:51:37;1.70;;;1.60;;
18653;SDS011;9456;47.824;16.228;2022-08-03T09:54:05;1.60;;;1.50;;
18653;SDS011;9456;47.824;16.228;2022-08-03T09:56:39;1.65;;;1.55;;
18653;SDS011;9456;47.824;16.228;2022-08-03T09:59:07;1.90;;;1.80;;
18653;SDS011;9456;47.824;16.228;2022-08-03T10:01:37;1.80;;;1.70;;
18653;SDS011;9456;47.824;16.228;2022-08-03T10:04:10;1.60;;;1.50;;
18653;SDS011;9456;47.824;16.228;2022-08-03T10:06:39;1.55;;;1.45;;
18653;SDS011;9456;47.824;16.228;2022-08-03T10:09:07;1.90;;;1.80;;
18653;SDS011;9456;47.824;16.228;2022-08-03T10:11:35;1.50;;;1.50;;
18653;SDS011;9456;47.824;16.228;2022-08-03T10:14:03;1.30;;;1.27;;
18653;SDS011;9456;47.824;16.228;2022-08-03T10:16:32;1.85;;;1.75;;
18653;SDS011;9456;47.824;16.228;2022-08-03T10:19:02;1.40;;;1.40;;
18653;SDS011;9456;47.824;16.228;2022-08-03T10:21:31;2.08;;;1.90;;
18653;SDS011;9456;47.824;16.228;2022-08-03T10:24:00;1.88;;;1.77;;
18653;SDS011;9456;47.824;16.228;2022-08-03T10:26:29;1.65;;;1.55;;
18653;SDS011;9456;47.824;16.228;2022-08-03T10:28:57;2.47;;;2.00;;
18653;SDS011;9456;47.824;16.228;2022-08-03T10:31:27;1.95;;;1.75;;
18653;SDS011;9456;47.824;16.228;2022-08-03T10:33:57;1.90;;;1.80;;
18653;SDS011;9456;47.824;16.228;2022-08-03T10:36:29;1.90;;;1.80;;
18653;SDS011;9456;47.824;16.228;2022-08-03T10:38:58;1.77;;;1.67;;
18653;SDS011;9456;47.824;16.228;2022-08-03T10:41:31;2.00;;;1.90;;
18653;SDS011;9456;47.824;16.228;2022-08-03T10:44:02;1.90;;;1.80;;
18653;SDS011;9456;47.824;16.228;2022-08-03T10:46:30;1.70;;;1.60;;
18653;SDS011;9456;47.824;16.228;2022-08-03T10:49:00;1.42;;;1.42;;
18653;SDS011;9456;47.824;16.228;2022-08-03T10:51:30;2.13;;;1.90;;
18653;SDS011;9456;47.824;16.228;2022-08-03T10:53:58;1.60;;;1.50;;
18653;SDS011;9456;47.824;16.228;2022-08-03T10:56:39;3.45;;;1.65;;
18653;SDS011;9456;47.824;16.228;2022-08-03T11:02:11;2.25;;;1.55;;
18653;SDS011;9456;47.824;16.228;2022-08-03T11:04:39;2.00;;;1.90;;
18653;SDS011;9456;47.824;16.228;2022-08-03T11:07:21;1.80;;;1.70;;
18653;SDS011;9456;47.824;16.228;2022-08-03T11:09:49;1.80;;;1.70;;
18653;SDS011;9456;47.824;16.228;2022-08-03T11:12:20;1.58;;;1.52;;
18653;SDS011;9456;47.824;16.228;2022-08-03T11:14:48;1.48;;;1.40;;
18653;SDS011;9456;47.824;16.228;2022-08-03T11:17:16;1.58;;;1.50;;
18653;SDS011;9456;47.824;16.228;2022-08-03T11:19:46;1.67;;;1.60;;
18653;SDS011;9456;47.824;16.228;2022-08-03T11:22:14;1.55;;;1.55;;
18653;SDS011;9456;47.824;16.228;2022-08-03T11:24:59;1.48;;;1.48;;
18653;SDS011;9456;47.824;16.228;2022-08-03T11:27:29;1.80;;;1.70;;
18653;SDS011;9456;47.824;16.228;2022-08-03T11:29:58;1.50;;;1.40;;
18653;SDS011;9456;47.824;16.228;2022-08-03T11:35:12;2.45;;;2.05;;
18653;SDS011;9456;47.824;16.228;2022-08-03T11:38:00;1.88;;;1.52;;
18653;SDS011;9456;47.824;16.228;2022-08-03T11:40:33;1.58;;;1.55;;
18653;SDS011;9456;47.824;16.228;2022-08-03T11:43:01;3.67;;;1.38;;
18653;SDS011;9456;47.824;16.228;2022-08-03T11:45:29;1.63;;;1.50;;
18653;SDS011;9456;47.824;16.228;2022-08-03T11:47:56;3.92;;;1.80;;
18653;SDS011;9456;47.824;16.228;2022-08-03T11:50:26;1.55;;;1.50;;
18653;SDS011;9456;47.824;16.228;2022-08-03T11:53:02;1.30;;;1.30;;
18653;SDS011;9456;47.824;16.228;2022-08-03T11:55:33;1.35;;;1.35;;
18653;SDS011;9456;47.824;16.228;2022-08-03T11:58:01;1.60;;;1.52;;
18653;SDS011;9456;47.824;16.228;2022-08-03T12:00:31;1.70;;;1.60;;
18653;SDS011;9456;47.824;16.228;2022-08-03T12:03:03;1.80;;;1.70;;
18653;SDS011;9456;47.824;16.228;2022-08-03T12:05:38;1.75;;;1.67;;
18653;SDS011;9456;47.824;16.228;2022-08-03T12:08:06;4.80;;;1.95;;
18653;SDS011;9456;47.824;16.228;2022-08-03T12:10:36;1.42;;;1.42;;
18653;SDS011;9456;47.824;16.228;2022-08-03T12:13:05;1.75;;;1.65;;
18653;SDS011;9456;47.824;16.228;2022-08-03T12:15:34;1.60;;;1.52;;
18653;SDS011;9456;47.824;16.228;2022-08-03T12:18:03;1.98;;;1.88;;
18653;SDS011;9456;47.824;16.228;2022-08-03T12:20:38;2.65;;;1.55;;
18653;SDS011;9456;47.824;16.228;2022-08-03T12:23:06;1.70;;;1.60;;
18653;SDS011;9456;47.824;16.228;2022-08-03T12:25:38;1.52;;;1.42;;
18653;SDS011;9456;47.824;16.228;2022-08-03T12:28:07;1.55;;;1.55;;
18653;SDS011;9456;47.824;16.228;2022-08-03T12:30:36;1.70;;;1.60;;
18653;SDS011;9456;47.824;16.228;2022-08-03T12:33:11;1.85;;;1.63;;
18653;SDS011;9456;47.824;16.228;2022-08-03T12:35:39;1.60;;;1.50;;
18653;SDS011;9456;47.824;16.228;2022-08-03T12:38:06;1.60;;;1.50;;
18653;SDS011;9456;47.824;16.228;2022-08-03T12:40:34;1.70;;;1.60;;
18653;SDS011;9456;47.824;16.228;2022-08-03T12:43:10;1.70;;;1.60;;
18653;SDS011;9456;47.824;16.228;2022-08-03T12:45:38;1.30;;;1.30;;
18653;SDS011;9456;47.824;16.228;2022-08-03T12:48:07;3.10;;;1.65;;
18653;SDS011;9456;47.824;16.228;2022-08-03T12:50:37;1.85;;;1.75;;
18653;SDS011;9456;47.824;16.228;2022-08-03T12:53:06;1.80;;;1.70;;
18653;SDS011;9456;47.824;16.228;2022-08-03T12:55:34;1.50;;;1.40;;
18653;SDS011;9456;47.824;16.228;2022-08-03T12:58:03;2.53;;;1.67;;
18653;SDS011;9456;47.824;16.228;2022-08-03T13:00:32;1.63;;;1.52;;
18653;SDS011;9456;47.824;16.228;2022-08-03T13:03:00;1.92;;;1.83;;
18653;SDS011;9456;47.824;16.228;2022-08-03T13:05:28;1.42;;;1.42;;
18653;SDS011;9456;47.824;16.228;2022-08-03T13:07:56;1.67;;;1.58;;
18653;SDS011;9456;47.824;16.228;2022-08-03T13:10:27;1.80;;;1.52;;
18653;SDS011;9456;47.824;16.228;2022-08-03T13:12:55;1.67;;;1.52;;
18653;SDS011;9456;47.824;16.228;2022-08-03T13:15:24;1.40;;;1.30;;
18653;SDS011;9456;47.824;16.228;2022-08-03T13:17:55;1.88;;;1.77;;
18653;SDS011;9456;47.824;16.228;2022-08-03T13:20:23;1.50;;;1.40;;
18653;SDS011;9456;47.824;16.228;2022-08-03T13:22:51;1.30;;;1.30;;
18653;SDS011;9456;47.824;16.228;2022-08-03T13:25:18;1.35;;;1.30;;
18653;SDS011;9456;47.824;16.228;2022-08-03T13:27:46;1.45;;;1.45;;
18653;SDS011;9456;47.824;16.228;2022-08-03T13:30:13;1.30;;;1.30;;
18653;SDS011;9456;47.824;16.228;2022-08-03T13:32:41;2.05;;;1.30;;
18653;SDS011;9456;47.824;16.228;2022-08-03T13:35:10;1.85;;;1.75;;
18653;SDS011;9456;47.824;16.228;2022-08-03T13:37:39;2.38;;;1.40;;
18653;SDS011;9456;47.824;16.228;2022-08-03T13:40:09;1.60;;;1.50;;
18653;SDS011;9456;47.824;16.228;2022-08-03T13:42:36;1.70;;;1.60;;
18653;SDS011;9456;47.824;16.228;2022-08-03T13:45:04;1.92;;;1.75;;
18653;SDS011;9456;47.824;16.228;2022-08-03T13:47:33;2.33;;;2.00;;
18653;SDS011;9456;47.824;16.228;2022-08-03T13:50:01;1.92;;;1.40;;
18653;SDS011;9456;47.824;16.228;2022-08-03T13:52:30;1.50;;;1.40;;
18653;SDS011;9456;47.824;16.228;2022-08-03T13:54:58;1.40;;;1.40;;
18653;SDS011;9456;47.824;16.228;2022-08-03T13:57:26;2.25;;;1.45;;
18653;SDS011;9456;47.824;16.228;2022-08-03T13:59:53;1.63;;;1.52;;
18653;SDS011;9456;47.824;16.228;2022-08-03T14:02:21;1.73;;;1.63;;
18653;SDS011;9456;47.824;16.228;2022-08-03T14:04:49;1.65;;;1.55;;
18653;SDS011;9456;47.824;16.228;2022-08-03T14:07:16;1.33;;;1.33;;
18653;SDS011;9456;47.824;16.228;2022-08-03T14:09:45;1.63;;;1.50;;
18653;SDS011;9456;47.824;16.228;2022-08-03T14:12:13;1.50;;;1.40;;
18653;SDS011;9456;47.824;16.228;2022-08-03T14:14:40;2.15;;;1.40;;
18653;SDS011;9456;47.824;16.228;2022-08-03T14:17:08;1.60;;;1.50;;
18653;SDS011;9456;47.824;16.228;2022-08-03T14:19:35;2.15;;;1.40;;
18653;SDS011;9456;47.824;16.228;2022-08-03T14:22:03;1.60;;;1.50;;
18653;SDS011;9456;47.824;16.228;2022-08-03T14:24:30;1.88;;;1.60;;
18653;SDS011;9456;47.824;16.228;2022-08-03T14:26:59;1.42;;;1.30;;
18653;SDS011;9456;47.824;16.228;2022-08-03T14:29:26;1.35;;;1.33;;
18653;SDS011;9456;47.824;16.228;2022-08-03T14:31:54;1.50;;;1.40;;
18653;SDS011;9456;47.824;16.228;2022-08-03T14:34:21;1.45;;;1.40;;
18653;SDS011;9456;47.824;16.228;2022-08-03T14:36:49;1.75;;;1.65;;
18653;SDS011;9456;47.824;16.228;2022-08-03T14:39:16;1.50;;;1.40;;
18653;SDS011;9456;47.824;16.228;2022-08-03T14:41:44;1.42;;;1.33;;
18653;SDS011;9456;47.824;16.228;2022-08-03T14:44:13;1.88;;;1.77;;
18653;SDS011;9456;47.824;16.228;2022-08-03T14:46:40;1.77;;;1.45;;
18653;SDS011;9456;47.824;16.228;2022-08-03T14:49:08;1.48;;;1.35;;
18653;SDS011;9456;47.824;16.228;2022-08-03T14:51:35;1.63;;;1.25;;
18653;SDS011;9456;47.824;16.228;2022-08-03T14:54:02;1.20;;;1.20;;
18653;SDS011;9456;47.824;16.228;2022-08-03T14:56:30;1.20;;;1.20;;
18653;SDS011;9456;47.824;16.228;2022-08-03T14:58:58;1.33;;;1.23;;
18653;SDS011;9456;47.824;16.228;2022-08-03T15:01:27;1.10;;;1.10;;
18653;SDS011;9456;47.824;16.228;2022-08-03T15:03:54;1.50;;;1.40;;
18653;SDS011;9456;47.824;16.228;2022-08-03T15:06:21;1.33;;;1.33;;
18653;SDS011;9456;47.824;16.228;2022-08-03T15:08:49;1.70;;;1.60;;
18653;SDS011;9456;47.824;16.228;2022-08-03T15:11:17;1.50;;;1.40;;
18653;SDS011;9456;47.824;16.228;2022-08-03T15:13:44;1.60;;;1.50;;
18653;SDS011;9456;47.824;16.228;2022-08-03T15:16:11;1.20;;;1.20;;
18653;SDS011;9456;47.824;16.228;2022-08-03T15:18:40;1.55;;;1.45;;
18653;SDS011;9456;47.824;16.228;2022-08-03T15:21:08;1.65;;;1.55;;
18653;SDS011;9456;47.824;16.228;2022-08-03T15:23:35;1.67;;;1.58;;
18653;SDS011;9456;47.824;16.228;2022-08-03T15:26:03;1.90;;;1.80;;
18653;SDS011;9456;47.824;16.228;2022-08-03T15:28:30;1.63;;;1.42;;
18653;SDS011;9456;47.824;16.228;2022-08-03T15:30:58;1.45;;;1.35;;
18653;SDS011;9456;47.824;16.228;2022-08-03T15:33:26;1.55;;;1.45;;
18653;SDS011;9456;47.824;16.228;2022-08-03T15:35:55;3.47;;;1.90;;
18653;SDS011;9456;47.824;16.228;2022-08-03T15:38:24;1.58;;;1.48;;
18653;SDS011;9456;47.824;16.228;2022-08-03T15:40:51;1.50;;;1.40;;
18653;SDS011;9456;47.824;16.228;2022-08-03T15:43:19;1.20;;;1.20;;
18653;SDS011;9456;47.824;16.228;2022-08-03T15:45:47;3.97;;;1.50;;
18653;SDS011;9456;47.824;16.228;2022-08-03T15:48:14;1.25;;;1.20;;
18653;SDS011;9456;47.824;16.228;2022-08-03T15:50:44;1.95;;;1.30;;
18653;SDS011;9456;47.824;16.228;2022-08-03T15:53:13;1.65;;;1.42;;
18653;SDS011;9456;47.824;16.228;2022-08-03T15:55:41;1.55;;;1.45;;
18653;SDS011;9456;47.824;16.228;2022-08-03T15:58:08;1.50;;;1.40;;
18653;SDS011;9456;47.824;16.228;2022-08-03T16:00:36;1.67;;;1.52;;
18653;SDS011;9456;47.824;16.228;2022-08-03T16:03:03;1.20;;;1.20;;
18653;SDS011;9456;47.824;16.228;2022-08-03T16:05:31;1.67;;;1.58;;
18653;SDS011;9456;47.824;16.228;2022-08-03T16:07:59;1.60;;;1.50;;
18653;SDS011;9456;47.824;16.228;2022-08-03T16:10:28;1.92;;;1.67;;
18653;SDS011;9456;47.824;16.228;2022-08-03T16:12:55;1.70;;;1.60;;
18653;SDS011;9456;47.824;16.228;2022-08-03T16:15:26;2.05;;;1.55;;
18653;SDS011;9456;47.824;16.228;2022-08-03T16:17:54;1.50;;;1.50;;
18653;SDS011;9456;47.824;16.228;2022-08-03T16:20:21;1.55;;;1.35;;
18653;SDS011;9456;47.824;16.228;2022-08-03T16:22:50;3.00;;;1.40;;
18653;SDS011;9456;47.824;16.228;2022-08-03T16:25:18;1.45;;;1.45;;
18653;SDS011;9456;47.824;16.228;2022-08-03T16:27:47;1.42;;;1.40;;
18653;SDS011;9456;47.824;16.228;2022-08-03T16:30:14;2.80;;;1.65;;
18653;SDS011;9456;47.824;16.228;2022-08-03T16:32:42;1.67;;;1.33;;
18653;SDS011;9456;47.824;16.228;2022-08-03T16:35:10;1.60;;;1.50;;
18653;SDS011;9456;47.824;16.228;2022-08-03T16:37:39;1.95;;;1.77;;
18653;SDS011;9456;47.824;16.228;2022-08-03T16:40:08;1.50;;;1.40;;
18653;SDS011;9456;47.824;16.228;2022-08-03T16:42:36;2.67;;;1.83;;
18653;SDS011;9456;47.824;16.228;2022-08-03T16:45:06;1.67;;;1.58;;
18653;SDS011;9456;47.824;16.228;2022-08-03T16:47:34;2.50;;;1.65;;
18653;SDS011;9456;47.824;16.228;2022-08-03T16:50:01;2.17;;;1.40;;
18653;SDS011;9456;47.824;16.228;2022-08-03T16:52:29;2.25;;;2.05;;
18653;SDS011;9456;47.824;16.228;2022-08-03T16:54:57;1.50;;;1.40;;
18653;SDS011;9456;47.824;16.228;2022-08-03T16:57:25;3.05;;;1.50;;
18653;SDS011;9456;47.824;16.228;2022-08-03T16:59:53;1.92;;;1.80;;
18653;SDS011;9456;47.824;16.228;2022-08-03T17:02:23;1.40;;;1.40;;
18653;SDS011;9456;47.824;16.228;2022-08-03T17:04:51;1.90;;;1.80;;
18653;SDS011;9456;47.824;16.228;2022-08-03T17:07:19;2.58;;;1.30;;
18653;SDS011;9456;47.824;16.228;2022-08-03T17:09:46;1.55;;;1.45;;
18653;SDS011;9456;47.824;16.228;2022-08-03T17:12:14;1.45;;;1.40;;
18653;SDS011;9456;47.824;16.228;2022-08-03T17:14:42;2.28;;;1.67;;
18653;SDS011;9456;47.824;16.228;2022-08-03T17:17:12;3.63;;;1.55;;
18653;SDS011;9456;47.824;16.228;2022-08-03T17:19:42;1.33;;;1.30;;
18653;SDS011;9456;47.824;16.228;2022-08-03T17:22:11;1.90;;;1.80;;
18653;SDS011;9456;47.824;16.228;2022-08-03T17:24:40;1.50;;;1.40;;
18653;SDS011;9456;47.824;16.228;2022-08-03T17:27:13;1.70;;;1.60;;
18653;SDS011;9456;47.824;16.228;2022-08-03T17:29:42;1.95;;;1.80;;
18653;SDS011;9456;47.824;16.228;2022-08-03T17:32:15;1.98;;;1.88;;
18653;SDS011;9456;47.824;16.228;2022-08-03T17:34:44;2.00;;;1.80;;
18653;SDS011;9456;47.824;16.228;2022-08-03T17:37:14;1.48;;;1.38;;
18653;SDS011;9456;47.824;16.228;2022-08-03T17:39:42;1.67;;;1.58;;
18653;SDS011;9456;47.824;16.228;2022-08-03T17:42:10;2.38;;;1.70;;
18653;SDS011;9456;47.824;16.228;2022-08-03T17:44:38;1.48;;;1.38;;
18653;SDS011;9456;47.824;16.228;2022-08-03T17:47:06;1.80;;;1.70;;
18653;SDS011;9456;47.824;16.228;2022-08-03T17:49:34;2.72;;;1.73;;
18653;SDS011;9456;47.824;16.228;2022-08-03T17:52:04;1.60;;;1.60;;
18653;SDS011;9456;47.824;16.228;2022-08-03T17:54:34;1.70;;;1.60;;
18653;SDS011;9456;47.824;16.228;2022-08-03T17:57:04;1.60;;;1.50;;
18653;SDS011;9456;47.824;16.228;2022-08-03T17:59:34;1.80;;;1.60;;
18653;SDS011;9456;47.824;16.228;2022-08-03T18:02:04;1.70;;;1.60;;
18653;SDS011;9456;47.824;16.228;2022-08-03T18:05:00;1.80;;;1.60;;
18653;SDS011;9456;47.824;16.228;2022-08-03T18:07:31;1.73;;;1.63;;
18653;SDS011;9456;47.824;16.228;2022-08-03T18:10:00;2.10;;;1.67;;
18653;SDS011;9456;47.824;16.228;2022-08-03T18:12:29;2.88;;;2.45;;
18653;SDS011;9456;47.824;16.228;2022-08-03T18:15:01;2.95;;;1.60;;
18653;SDS011;9456;47.824;16.228;2022-08-03T18:17:30;1.83;;;1.67;;
18653;SDS011;9456;47.824;16.228;2022-08-03T18:19:58;1.50;;;1.40;;
18653;SDS011;9456;47.824;16.228;2022-08-03T18:22:26;2.10;;;1.90;;
18653;SDS011;9456;47.824;16.228;2022-08-03T18:24:55;1.87;;;1.70;;
18653;SDS011;9456;47.824;16.228;2022-08-03T18:27:23;1.48;;;1.48;;
18653;SDS011;9456;47.824;16.228;2022-08-03T18:29:50;1.40;;;1.40;;
18653;SDS011;9456;47.824;16.228;2022-08-03T18:32:17;2.13;;;1.73;;
18653;SDS011;9456;47.824;16.228;2022-08-03T18:34:45;2.03;;;1.80;;
18653;SDS011;9456;47.824;16.228;2022-08-03T18:37:13;2.00;;;1.90;;
18653;SDS011;9456;47.824;16.228;2022-08-03T18:39:43;2.40;;;2.20;;
18653;SDS011;9456;47.824;16.228;2022-08-03T18:42:13;1.70;;;1.60;;
18653;SDS011;9456;47.824;16.228;2022-08-03T18:44:40;1.83;;;1.73;;
18653;SDS011;9456;47.824;16.228;2022-08-03T18:47:16;2.37;;;2.17;;
18653;SDS011;9456;47.824;16.228;2022-08-03T18:49:47;2.87;;;2.13;;
18653;SDS011;9456;47.824;16.228;2022-08-03T18:52:20;2.63;;;1.87;;
18653;SDS011;9456;47.824;16.228;2022-08-03T18:54:51;1.83;;;1.73;;
18653;SDS011;9456;47.824;16.228;2022-08-03T18:57:26;2.00;;;1.90;;
18653;SDS011;9456;47.824;16.228;2022-08-03T18:59:57;2.00;;;1.80;;
18653;SDS011;9456;47.824;16.228;2022-08-03T19:02:27;2.00;;;1.80;;
18653;SDS011;9456;47.824;16.228;2022-08-03T19:04:57;1.83;;;1.73;;
18653;SDS011;9456;47.824;16.228;2022-08-03T19:07:27;1.90;;;1.80;;
18653;SDS011;9456;47.824;16.228;2022-08-03T19:09:57;1.90;;;1.80;;
18653;SDS011;9456;47.824;16.228;2022-08-03T19:12:27;2.83;;;2.10;;
18653;SDS011;9456;47.824;16.228;2022-08-03T19:14:59;2.30;;;2.20;;
18653;SDS011;9456;47.824;16.228;2022-08-03T19:17:27;2.77;;;2.40;;
18653;SDS011;9456;47.824;16.228;2022-08-03T19:19:54;2.20;;;2.10;;